Time;durP1;ratioP1;P1;durP2;ratioP2;P2;SDS_P1;SDS_P2;PMS_P1;PMS_P2;Temp;Humidity;BMP_temperature;BMP_pressure;BME280_temperature;BME280_humidity;BME280_pressure;Samples;Min_cycle;Max_cycle;Signal;HPM_P1;HPM_P2
2021/06/03 00:00:23;;;;;;;8.95;7.43;;;;;;;17.52;100.00;101011.50;4937429;29;20051;-59
2021/06/03 00:02:52;;;;;;;10.75;6.93;;;;;;;17.44;100.00;101017.09;4935429;29;20048;-59
2021/06/03 00:05:25;;;;;;;9.23;7.10;;;;;;;17.51;100.00;101018.78;4930939;29;20446;-59
2021/06/03 00:07:53;;;;;;;12.98;8.10;;;;;;;17.55;100.00;101020.03;4933209;29;20044;-59
2021/06/03 00:10:24;;;;;;;10.98;7.55;;;;;;;17.66;100.00;101025.84;4929887;29;20058;-59
2021/06/03 00:12:53;;;;;;;12.52;8.18;;;;;;;17.53;100.00;101024.78;4939651;29;20055;-59
2021/06/03 00:15:22;;;;;;;9.55;7.22;;;;;;;17.25;100.00;101024.91;4929282;29;20039;-59
2021/06/03 00:17:49;;;;;;;11.18;8.52;;;;;;;17.23;100.00;101026.16;4932175;29;20458;-59
2021/06/03 00:20:21;;;;;;;13.30;7.60;;;;;;;17.16;100.00;101020.75;4935126;29;20047;-59
2021/06/03 00:22:49;;;;;;;11.18;8.18;;;;;;;17.29;100.00;101022.66;4935389;29;20971;-59
2021/06/03 00:25:16;;;;;;;11.43;7.93;;;;;;;17.32;100.00;101020.38;4932407;29;20047;-59
2021/06/03 00:27:44;;;;;;;13.90;8.55;;;;;;;17.25;100.00;101024.91;4932768;29;20048;-59
2021/06/03 00:30:12;;;;;;;12.00;8.50;;;;;;;17.32;100.00;101017.69;4933967;29;20056;-60
2021/06/03 00:32:41;;;;;;;9.10;7.07;;;;;;;17.44;100.00;101030.59;4933533;29;20054;-59
2021/06/03 00:35:11;;;;;;;9.88;7.70;;;;;;;17.35;100.00;101024.53;4932888;29;20288;-59
2021/06/03 00:37:40;;;;;;;11.95;9.05;;;;;;;17.41;100.00;101033.69;4934651;29;20050;-60
2021/06/03 00:40:09;;;;;;;10.93;8.23;;;;;;;17.40;100.00;101032.84;4932497;29;20102;-59
2021/06/03 00:42:37;;;;;;;9.45;7.38;;;;;;;17.40;100.00;101026.63;4937095;29;20047;-59
2021/06/03 00:45:10;;;;;;;8.85;6.55;;;;;;;17.44;100.00;101023.31;4930809;29;20518;-60
2021/06/03 00:47:38;;;;;;;11.35;7.25;;;;;;;17.41;100.00;101023.72;4934904;29;20050;-59
2021/06/03 00:50:11;;;;;;;9.45;7.22;;;;;;;17.43;100.00;101021.66;4936095;29;20051;-59
2021/06/03 00:52:38;;;;;;;7.47;6.70;;;;;;;17.44;100.00;101011.69;4932674;29;20127;-58
2021/06/03 00:55:07;;;;;;;10.68;7.57;;;;;;;17.60;100.00;101015.88;4934942;29;20091;-59
2021/06/03 00:57:35;;;;;;;11.75;7.35;;;;;;;17.64;100.00;101011.75;4937661;29;20570;-59
2021/06/03 01:00:08;;;;;;;9.38;7.03;;;;;;;17.49;100.00;101015.44;4928272;29;20047;-59
2021/06/03 01:02:35;;;;;;;10.60;7.85;;;;;;;17.44;100.00;101019.81;4934395;29;20055;-59
2021/06/03 01:05:08;;;;;;;14.40;7.50;;;;;;;17.21;100.00;101019.09;4929318;29;20094;-59
2021/06/03 01:07:36;;;;;;;10.15;7.50;;;;;;;17.35;100.00;101022.69;4930053;29;20110;-59
2021/06/03 01:10:08;;;;;;;9.77;7.90;;;;;;;17.24;100.00;101020.56;4935307;29;20043;-59
2021/06/03 01:12:41;;;;;;;9.10;6.50;;;;;;;17.49;100.00;101025.41;4931534;29;20043;-59
2021/06/03 01:15:10;;;;;;;8.25;6.93;;;;;;;17.63;100.00;101026.25;4930966;29;20058;-59
2021/06/03 01:17:38;;;;;;;9.45;7.72;;;;;;;17.36;100.00;101020.81;4932082;29;20079;-59
2021/06/03 01:20:09;;;;;;;9.55;7.38;;;;;;;17.49;100.00;101020.00;4934166;29;20127;-59
2021/06/03 01:22:49;;;;;;;7.95;6.38;;;;;;;17.36;100.00;101029.72;4931843;29;20070;-60
2021/06/03 01:25:20;;;;;;;8.40;7.15;;;;;;;17.25;100.00;101022.22;4930193;29;20039;-60
2021/06/03 01:27:48;;;;;;;13.50;8.82;;;;;;;17.07;100.00;101016.53;4932532;29;20043;-60
2021/06/03 01:30:18;;;;;;;9.88;8.05;;;;;;;16.95;100.00;101019.00;4932436;29;20044;-59
2021/06/03 01:32:48;;;;;;;10.95;7.95;;;;;;;17.01;100.00;101018.16;4931143;29;20048;-59
2021/06/03 01:35:18;;;;;;;9.68;8.10;;;;;;;17.15;100.00;101009.13;4930131;29;20043;-60
2021/06/03 01:37:46;;;;;;;9.93;7.28;;;;;;;17.20;100.00;101009.34;4932237;29;20044;-59
2021/06/03 01:40:16;;;;;;;10.80;7.43;;;;;;;17.24;100.00;101009.78;4934370;29;20055;-59
2021/06/03 01:42:46;;;;;;;11.20;7.32;;;;;;;17.22;100.00;101006.44;4930480;29;20099;-59
2021/06/03 01:45:15;;;;;;;10.77;7.60;;;;;;;17.16;100.00;101013.47;4932951;29;20124;-59
2021/06/03 01:47:46;;;;;;;9.73;6.55;;;;;;;17.27;100.00;101020.16;4934015;29;20056;-59
2021/06/03 01:50:15;;;;;;;8.95;6.55;;;;;;;17.42;100.00;101019.16;4930199;29;20052;-59
2021/06/03 01:52:43;;;;;;;9.35;6.15;;;;;;;17.38;100.00;101022.28;4936019;29;20046;-59
2021/06/03 01:55:12;;;;;;;10.20;6.82;;;;;;;17.33;100.00;101021.22;4930583;29;20051;-59
2021/06/03 01:57:41;;;;;;;9.75;6.55;;;;;;;17.36;100.00;101016.22;4937845;29;20055;-59
2021/06/03 02:00:12;;;;;;;8.75;6.25;;;;;;;17.53;100.00;101022.09;4932392;29;20099;-59
2021/06/03 02:02:40;;;;;;;11.00;6.68;;;;;;;17.47;100.00;101022.91;4934060;29;20359;-60
2021/06/03 02:05:08;;;;;;;8.77;6.13;;;;;;;17.50;100.00;101013.56;4932318;29;20050;-59
2021/06/03 02:07:36;;;;;;;10.63;6.50;;;;;;;17.53;100.00;101011.28;4933130;29;20364;-59
2021/06/03 02:10:05;;;;;;;7.00;5.32;;;;;;;17.74;100.00;101020.25;4933091;29;20055;-60
2021/06/03 02:12:36;;;;;;;7.20;5.97;;;;;;;17.69;100.00;101017.34;4931841;29;20044;-59
2021/06/03 02:15:06;;;;;;;8.10;5.38;;;;;;;17.63;100.00;101028.97;4932850;29;20047;-60
2021/06/03 02:17:38;;;;;;;11.30;6.45;;;;;;;17.76;100.00;101020.88;4934648;29;20077;-60
2021/06/03 02:20:08;;;;;;;8.60;5.65;;;;;;;17.80;100.00;101022.13;4930077;29;20040;-59
2021/06/03 02:22:36;;;;;;;7.65;5.88;;;;;;;17.93;100.00;101024.03;4936727;29;20110;-59
2021/06/03 02:25:05;;;;;;;8.15;5.80;;;;;;;17.94;100.00;101019.50;4931045;29;20095;-60
2021/06/03 02:27:32;;;;;;;9.00;6.07;;;;;;;17.91;100.00;101015.31;4929254;29;20055;-59
2021/06/03 02:30:00;;;;;;;8.18;5.85;;;;;;;17.94;100.00;101014.09;4933065;29;20077;-59
2021/06/03 02:32:30;;;;;;;8.48;5.82;;;;;;;17.96;100.00;101014.69;4935747;29;20051;-60
2021/06/03 02:34:59;;;;;;;9.55;5.97;;;;;;;17.72;100.00;101019.66;4937679;29;20047;-60
2021/06/03 02:37:27;;;;;;;7.70;6.40;;;;;;;17.87;100.00;101014.88;4933719;29;20149;-60
2021/06/03 02:39:58;;;;;;;7.70;5.95;;;;;;;17.81;100.00;101014.88;4938971;29;20043;-68
2021/06/03 02:42:26;;;;;;;8.88;6.30;;;;;;;17.76;100.00;101010.06;4937022;29;20131;-60
2021/06/03 02:44:54;;;;;;;9.68;6.68;;;;;;;17.88;100.00;101013.84;4934714;29;20051;-59
2021/06/03 02:47:22;;;;;;;10.90;6.35;;;;;;;18.00;100.00;101014.09;4933012;29;20048;-59
2021/06/03 02:49:49;;;;;;;8.02;6.20;;;;;;;18.06;100.00;101020.53;4938333;29;20075;-59
2021/06/03 02:52:18;;;;;;;10.52;6.10;;;;;;;17.99;100.00;101023.22;4939504;29;20054;-59
2021/06/03 02:54:45;;;;;;;10.20;6.88;;;;;;;18.16;100.00;101025.50;4932414;29;20391;-59
2021/06/03 02:57:13;;;;;;;8.07;6.28;;;;;;;18.22;100.00;101025.50;4932988;29;20126;-59
2021/06/03 02:59:40;;;;;;;10.55;6.50;;;;;;;18.08;100.00;101025.72;4941682;29;20051;-60
2021/06/03 03:02:07;;;;;;;9.13;6.90;;;;;;;18.01;100.00;101023.03;4937028;29;20040;-59
2021/06/03 03:04:35;;;;;;;9.30;7.43;;;;;;;18.10;100.00;101032.56;4931064;29;20107;-59
2021/06/03 03:07:03;;;;;;;10.38;7.35;;;;;;;17.97;100.00;101033.41;4934845;29;20254;-59
2021/06/03 03:09:31;;;;;;;11.60;7.60;;;;;;;18.00;100.00;101032.16;4935192;29;20624;-59
2021/06/03 03:11:59;;;;;;;10.57;8.20;;;;;;;18.14;100.00;101035.69;4941968;29;20474;-60
2021/06/03 03:14:26;;;;;;;10.57;7.72;;;;;;;18.22;100.00;101041.72;4929923;29;20044;-60
2021/06/03 03:16:54;;;;;;;7.72;6.88;;;;;;;18.09;100.00;101044.44;4936136;29;20692;-60
2021/06/03 03:19:22;;;;;;;9.80;7.65;;;;;;;18.15;100.00;101046.31;4936236;29;20059;-60
2021/06/03 03:21:49;;;;;;;12.15;7.60;;;;;;;18.14;100.00;101044.63;4934769;29;20451;-59
2021/06/03 03:24:16;;;;;;;10.90;7.88;;;;;;;18.22;100.00;101047.13;4935929;29;20395;-59
2021/06/03 03:26:46;;;;;;;10.25;8.27;;;;;;;18.03;100.00;101053.34;4934730;29;20352;-60
2021/06/03 03:29:13;;;;;;;11.50;8.52;;;;;;;18.01;100.00;101056.25;4936688;29;20056;-59
2021/06/03 03:31:40;;;;;;;11.25;8.00;;;;;;;18.02;100.00;101057.94;4933903;29;20043;-59
2021/06/03 03:34:08;;;;;;;9.90;7.57;;;;;;;18.11;100.00;101061.25;4935894;29;20063;-60
2021/06/03 03:36:37;;;;;;;11.75;8.23;;;;;;;17.97;100.00;101059.59;4930965;29;20098;-61
2021/06/03 03:39:05;;;;;;;11.73;9.25;;;;;;;17.75;100.00;101059.75;4935737;29;20051;-60
2021/06/03 03:41:33;;;;;;;12.95;8.27;;;;;;;17.91;100.00;101065.84;4935577;29;20044;-60
2021/06/03 03:44:02;;;;;;;11.90;8.80;;;;;;;18.00;100.00;101069.97;4932206;29;20056;-59
2021/06/03 03:46:29;;;;;;;15.90;9.25;;;;;;;18.12;100.00;101072.94;4931337;29;20040;-59
2021/06/03 03:48:57;;;;;;;10.75;9.07;;;;;;;17.98;100.00;101078.28;4934007;29;20044;-59
2021/06/03 03:51:25;;;;;;;16.52;11.05;;;;;;;18.08;100.00;101077.06;4931594;29;20046;-59
2021/06/03 03:53:52;;;;;;;14.68;8.20;;;;;;;18.21;100.00;101074.38;4936437;29;20059;-59
2021/06/03 03:56:20;;;;;;;14.75;10.00;;;;;;;18.41;100.00;101077.06;4933234;29;20050;-59
2021/06/03 03:58:49;;;;;;;12.43;9.05;;;;;;;18.33;100.00;101074.56;4938673;29;20074;-59
2021/06/03 04:01:18;;;;;;;13.30;9.07;;;;;;;18.18;100.00;101072.09;4934135;29;20372;-59
2021/06/03 04:03:45;;;;;;;17.50;10.40;;;;;;;18.26;100.00;101079.13;4934773;29;20435;-59
2021/06/03 04:06:13;;;;;;;16.65;10.63;;;;;;;18.32;100.00;101086.44;4936793;29;20044;-59
2021/06/03 04:08:40;;;;;;;16.95;10.70;;;;;;;18.36;100.00;101085.00;4932275;29;20090;-60
2021/06/03 04:11:07;;;;;;;18.42;11.27;;;;;;;18.44;100.00;101092.03;4935266;29;20044;-59
2021/06/03 04:13:35;;;;;;;18.67;12.32;;;;;;;18.30;100.00;101088.50;4932340;29;20051;-59
2021/06/03 04:16:04;;;;;;;18.35;12.38;;;;;;;18.58;100.00;101091.84;4921496;29;20407;-59
2021/06/03 04:18:33;;;;;;;17.63;11.63;;;;;;;18.62;100.00;101094.94;4936624;29;20054;-59
2021/06/03 04:21:00;;;;;;;17.98;12.00;;;;;;;18.68;100.00;101093.25;4932194;29;20056;-59
2021/06/03 04:23:28;;;;;;;22.55;14.10;;;;;;;18.66;100.00;101098.88;4939510;29;20451;-59
2021/06/03 04:25:55;;;;;;;20.60;14.43;;;;;;;18.65;100.00;101088.28;4932050;29;20048;-59
2021/06/03 04:28:23;;;;;;;18.80;13.50;;;;;;;18.71;100.00;101099.09;4936697;29;20059;-59
2021/06/03 04:30:50;;;;;;;20.35;13.68;;;;;;;18.74;100.00;101108.66;4934475;29;20051;-59
2021/06/03 04:33:20;;;;;;;23.90;15.00;;;;;;;18.79;100.00;101106.16;4936415;29;20054;-59
2021/06/03 04:35:52;;;;;;;23.30;14.25;;;;;;;18.62;100.00;101107.63;4933794;29;20046;-59
2021/06/03 04:38:20;;;;;;;22.65;15.00;;;;;;;18.77;100.00;101119.06;4933374;29;20043;-60
2021/06/03 04:40:48;;;;;;;25.77;14.85;;;;;;;18.71;100.00;101119.88;4937604;29;20098;-60
2021/06/03 04:43:15;;;;;;;22.38;15.43;;;;;;;18.31;100.00;101115.31;4934232;29;20443;-59
2021/06/03 04:45:43;;;;;;;25.88;15.98;;;;;;;18.54;100.00;101123.03;4934285;29;20047;-59
2021/06/03 04:48:10;;;;;;;20.45;14.23;;;;;;;18.68;100.00;101115.72;4935377;29;20043;-59
2021/06/03 04:50:38;;;;;;;25.02;15.10;;;;;;;18.41;100.00;101117.63;4929816;29;20055;-59
2021/06/03 04:53:07;;;;;;;23.55;15.60;;;;;;;18.51;100.00;101119.91;4928367;29;20063;-59
2021/06/03 04:55:35;;;;;;;21.85;14.25;;;;;;;18.67;100.00;101118.63;4931150;29;20058;-59
2021/06/03 04:58:03;;;;;;;22.05;15.20;;;;;;;18.76;100.00;101117.41;4934218;29;20040;-59
2021/06/03 05:00:32;;;;;;;23.60;15.27;;;;;;;18.79;100.00;101125.09;4934451;29;20339;-58
2021/06/03 05:03:01;;;;;;;23.15;16.92;;;;;;;18.43;100.00;101123.66;4929464;29;20375;-59
2021/06/03 05:05:30;;;;;;;23.25;14.75;;;;;;;18.70;100.00;101115.53;4931820;29;20399;-59
2021/06/03 05:07:57;;;;;;;21.83;16.38;;;;;;;18.58;100.00;101120.72;4927349;29;20031;-59
2021/06/03 05:10:27;;;;;;;30.70;17.27;;;;;;;18.99;100.00;101116.13;4936651;29;20070;-59
2021/06/03 05:12:55;;;;;;;23.25;14.77;;;;;;;19.14;100.00;101119.44;4934231;29;20066;-59
2021/06/03 05:15:24;;;;;;;24.13;14.73;;;;;;;18.96;100.00;101122.78;4927595;29;20356;-59
2021/06/03 05:17:52;;;;;;;20.85;13.80;;;;;;;19.07;100.00;101124.84;4930372;29;20043;-59
2021/06/03 05:20:22;;;;;;;20.90;14.55;;;;;;;18.87;100.00;101133.03;4934258;29;20047;-59
2021/06/03 05:22:51;;;;;;;20.80;14.52;;;;;;;18.80;100.00;101134.03;4933397;29;20048;-59
2021/06/03 05:25:21;;;;;;;22.65;14.15;;;;;;;18.63;100.00;101136.31;4935230;29;20106;-59
2021/06/03 05:27:51;;;;;;;22.13;14.35;;;;;;;19.03;100.00;101139.03;4933808;29;20309;-59
2021/06/03 05:30:21;;;;;;;20.23;13.25;;;;;;;19.06;100.00;101133.19;4935946;29;20079;-59
2021/06/03 05:32:48;;;;;;;16.52;12.15;;;;;;;19.45;100.00;101136.81;4928888;29;20094;-60
2021/06/03 05:35:17;;;;;;;18.45;12.40;;;;;;;19.50;100.00;101145.13;4926038;29;20083;-59
2021/06/03 05:37:46;;;;;;;19.17;12.13;;;;;;;19.65;100.00;101146.72;4930159;29;20036;-59
2021/06/03 05:40:16;;;;;;;18.70;12.40;;;;;;;19.59;100.00;101148.41;4930806;29;20047;-59
2021/06/03 05:42:43;;;;;;;17.88;11.52;;;;;;;19.92;100.00;101152.88;4933400;29;20055;-59
2021/06/03 05:45:13;;;;;;;15.10;10.98;;;;;;;20.38;100.00;101162.56;4931187;29;20055;-59
2021/06/03 05:47:41;;;;;;;19.27;12.45;;;;;;;20.29;100.00;101164.72;4931218;29;20036;-60
2021/06/03 05:50:11;;;;;;;19.58;12.82;;;;;;;20.11;100.00;101162.75;4932343;29;20054;-59
2021/06/03 05:52:40;;;;;;;18.42;12.43;;;;;;;19.89;100.00;101165.00;4934252;29;20078;-60
2021/06/03 05:55:10;;;;;;;18.80;13.25;;;;;;;19.74;100.00;101170.66;4929117;29;20051;-60
2021/06/03 05:57:38;;;;;;;20.40;12.23;;;;;;;20.13;100.00;101176.13;4933125;29;20044;-59
2021/06/03 06:00:08;;;;;;;20.98;14.30;;;;;;;19.93;100.00;101174.34;4930965;29;20224;-59
2021/06/03 06:02:46;;;;;;;22.88;14.35;;;;;;;20.42;100.00;101176.53;4931699;29;20053;-60
2021/06/03 06:08:01;;;;;;;22.20;14.65;;;;;;;20.79;100.00;101174.78;4935114;29;20051;-60
2021/06/03 06:10:29;;;;;;;24.42;13.85;;;;;;;20.46;100.00;101185.91;4937259;29;20384;-59
2021/06/03 06:12:57;;;;;;;23.40;15.00;;;;;;;21.22;100.00;101181.28;4935166;29;20055;-60
2021/06/03 06:15:26;;;;;;;24.70;15.48;;;;;;;20.46;100.00;101188.63;4931676;29;20559;-59
2021/06/03 06:17:54;;;;;;;21.80;16.00;;;;;;;20.87;100.00;101195.41;4935046;29;20051;-60
2021/06/03 06:20:23;;;;;;;23.25;14.68;;;;;;;21.14;100.00;101193.25;4933828;29;20058;-60
2021/06/03 06:22:51;;;;;;;21.95;12.77;;;;;;;21.19;100.00;101191.75;4935249;29;20051;-59
2021/06/03 06:25:19;;;;;;;21.52;13.82;;;;;;;21.65;100.00;101199.41;4932302;29;20056;-60
2021/06/03 06:27:47;;;;;;;21.58;14.40;;;;;;;21.58;100.00;101208.72;4929003;29;20093;-59
2021/06/03 06:30:15;;;;;;;23.25;14.48;;;;;;;21.10;100.00;101205.63;4935798;29;20047;-60
2021/06/03 06:32:43;;;;;;;23.23;14.38;;;;;;;20.94;100.00;101204.31;4933647;29;20043;-59
2021/06/03 06:35:12;;;;;;;21.40;14.45;;;;;;;21.23;100.00;101212.81;4932352;29;20051;-59
2021/06/03 06:37:40;;;;;;;20.00;13.57;;;;;;;21.70;100.00;101206.88;4934571;29;20054;-59
2021/06/03 06:40:08;;;;;;;21.15;15.10;;;;;;;21.18;100.00;101199.09;4934858;29;20048;-59
2021/06/03 06:42:36;;;;;;;20.30;14.10;;;;;;;21.61;100.00;101200.09;4935642;29;20035;-59
2021/06/03 06:45:06;;;;;;;23.90;14.77;;;;;;;21.63;100.00;101206.97;4932678;29;20251;-59
2021/06/03 06:47:35;;;;;;;23.25;14.55;;;;;;;21.14;100.00;101206.03;4932676;29;20059;-59
2021/06/03 06:50:04;;;;;;;23.98;15.45;;;;;;;22.16;100.00;101210.06;4933737;29;20058;-60
2021/06/03 06:52:33;;;;;;;21.55;15.13;;;;;;;22.37;100.00;101213.34;4931670;29;20412;-60
2021/06/03 06:55:01;;;;;;;21.13;13.68;;;;;;;21.97;100.00;101217.41;4932979;29;20138;-60
2021/06/03 06:57:28;;;;;;;25.60;14.43;;;;;;;22.05;100.00;101216.28;4936728;29;20387;-60
2021/06/03 06:59:56;;;;;;;20.70;13.40;;;;;;;22.28;100.00;101224.50;4935230;29;20266;-59
2021/06/03 07:02:23;;;;;;;21.52;13.18;;;;;;;22.47;100.00;101217.16;4936136;29;20324;-59
2021/06/03 07:04:51;;;;;;;23.17;14.38;;;;;;;21.97;100.00;101218.25;4935388;29;20337;-59
2021/06/03 07:07:18;;;;;;;20.55;15.07;;;;;;;22.09;100.00;101221.03;4937795;29;20042;-61
2021/06/03 07:09:47;;;;;;;22.48;15.30;;;;;;;22.09;100.00;101217.47;4932866;29;20085;-60
2021/06/03 07:12:15;;;;;;;24.10;14.40;;;;;;;22.76;100.00;101224.66;4934735;29;20479;-60
2021/06/03 07:14:43;;;;;;;23.20;15.35;;;;;;;22.47;100.00;101221.75;4931831;29;20185;-59
2021/06/03 07:17:10;;;;;;;19.90;14.07;;;;;;;22.74;100.00;101227.63;4935674;29;20321;-59
2021/06/03 07:19:39;;;;;;;19.58;13.40;;;;;;;23.16;100.00;101232.16;4936587;29;20494;-60
2021/06/03 07:22:07;;;;;;;20.70;15.80;;;;;;;22.09;100.00;101236.53;4932739;29;20048;-59
2021/06/03 07:24:35;;;;;;;21.48;15.45;;;;;;;21.39;100.00;101235.84;4930895;29;20328;-59
2021/06/03 07:27:05;;;;;;;24.00;14.15;;;;;;;22.40;100.00;101240.91;4935241;29;20444;-59
2021/06/03 07:29:33;;;;;;;20.67;13.73;;;;;;;22.80;100.00;101243.00;4931551;29;20408;-59
2021/06/03 07:32:01;;;;;;;18.25;12.85;;;;;;;22.70;100.00;101251.75;4936087;29;20126;-59
2021/06/03 07:34:29;;;;;;;18.98;13.88;;;;;;;22.39;100.00;101246.59;4930724;29;20055;-59
2021/06/03 07:36:56;;;;;;;21.52;14.65;;;;;;;22.57;100.00;101249.25;4934749;29;20281;-60
2021/06/03 07:39:25;;;;;;;21.92;15.07;;;;;;;22.10;100.00;101246.31;4934241;29;20364;-59
2021/06/03 07:41:52;;;;;;;22.13;16.02;;;;;;;22.00;100.00;101236.84;4931960;29;20040;-59
2021/06/03 07:44:21;;;;;;;23.75;15.57;;;;;;;22.37;100.00;101243.25;4932755;29;20047;-59
2021/06/03 07:46:49;;;;;;;22.00;14.48;;;;;;;22.05;100.00;101251.63;4933370;29;20382;-59
2021/06/03 07:49:16;;;;;;;23.60;15.60;;;;;;;22.30;100.00;101251.50;4933913;29;20335;-60
2021/06/03 07:51:44;;;;;;;23.10;14.35;;;;;;;22.34;100.00;101258.16;4937051;29;20051;-59
2021/06/03 07:54:11;;;;;;;21.30;15.13;;;;;;;21.79;100.00;101256.34;4935526;29;20047;-59
2021/06/03 07:56:39;;;;;;;27.02;17.05;;;;;;;22.13;100.00;101256.75;4933337;29;20048;-59
2021/06/03 07:59:07;;;;;;;24.85;17.85;;;;;;;22.67;100.00;101265.84;4935889;29;20035;-59
2021/06/03 08:01:36;;;;;;;21.30;16.10;;;;;;;22.28;100.00;101261.78;4934527;29;20058;-60
2021/06/03 08:04:04;;;;;;;25.02;18.20;;;;;;;22.72;100.00;101270.56;4932133;29;20055;-60
2021/06/03 08:06:32;;;;;;;23.08;16.25;;;;;;;23.36;100.00;101272.66;4932079;29;20047;-59
2021/06/03 08:08:59;;;;;;;23.98;17.40;;;;;;;22.62;100.00;101267.59;4935068;29;20055;-60
2021/06/03 08:11:27;;;;;;;25.13;17.45;;;;;;;22.55;100.00;101270.41;4934666;29;20098;-60
2021/06/03 08:13:55;;;;;;;22.95;14.95;;;;;;;23.02;100.00;101273.25;4932036;29;20046;-59
2021/06/03 08:16:22;;;;;;;23.45;15.45;;;;;;;22.78;100.00;101277.81;4930163;29;20048;-59
2021/06/03 08:18:52;;;;;;;25.98;16.48;;;;;;;23.61;100.00;101271.59;4935441;29;20295;-59
2021/06/03 08:21:19;;;;;;;23.33;15.60;;;;;;;24.10;100.00;101272.09;4934585;29;20054;-59
2021/06/03 08:23:47;;;;;;;22.10;15.15;;;;;;;23.94;100.00;101276.41;4934333;29;20051;-59
2021/06/03 08:26:14;;;;;;;21.58;15.40;;;;;;;24.37;100.00;101283.25;4928463;29;20455;-59
2021/06/03 08:28:42;;;;;;;24.77;16.88;;;;;;;23.26;100.00;101283.34;4934188;29;20335;-60
2021/06/03 08:31:10;;;;;;;23.02;15.18;;;;;;;23.35;100.00;101284.66;4929602;29;20048;-59
2021/06/03 08:33:37;;;;;;;24.40;15.77;;;;;;;24.38;100.00;101279.47;4933436;29;20114;-59
2021/06/03 08:36:07;;;;;;;25.65;16.33;;;;;;;23.61;100.00;101280.59;4922671;29;20323;-59
2021/06/03 08:38:34;;;;;;;22.08;15.25;;;;;;;24.36;100.00;101281.59;4934660;29;20031;-59
2021/06/03 08:41:02;;;;;;;24.83;15.15;;;;;;;24.10;100.00;101288.47;4933174;29;20347;-59
2021/06/03 08:43:31;;;;;;;20.60;15.02;;;;;;;23.46;100.00;101285.69;4932577;29;20114;-59
2021/06/03 08:46:00;;;;;;;22.45;15.90;;;;;;;23.61;100.00;101291.50;4935925;29;20055;-59
2021/06/03 08:48:28;;;;;;;22.58;14.88;;;;;;;23.60;100.00;101287.09;4932694;29;20391;-59
2021/06/03 08:50:58;;;;;;;23.48;15.25;;;;;;;23.06;100.00;101283.66;4932061;29;20040;-59
2021/06/03 08:53:27;;;;;;;19.42;15.32;;;;;;;23.06;100.00;101284.47;4931480;29;20051;-59
2021/06/03 08:58:50;;;;;;;25.45;15.27;;;;;;;23.10;100.00;101293.84;4934997;29;20059;-59
2021/06/03 09:01:18;;;;;;;20.83;13.55;;;;;;;23.58;100.00;101297.44;4932555;29;20060;-59
2021/06/03 09:03:47;;;;;;;21.70;13.90;;;;;;;24.37;100.00;101288.72;4930509;29;20036;-59
2021/06/03 09:06:16;;;;;;;22.45;14.18;;;;;;;24.06;100.00;101292.75;4935414;29;20443;-59
2021/06/03 09:08:49;;;;;;;22.67;13.73;;;;;;;23.19;100.00;101291.63;4931049;29;20040;-59
2021/06/03 09:11:19;;;;;;;24.08;14.07;;;;;;;24.00;100.00;101296.41;4931219;29;20047;-59
2021/06/03 09:13:51;;;;;;;20.25;13.38;;;;;;;25.35;100.00;101301.31;4931633;29;20129;-60
2021/06/03 09:16:21;;;;;;;20.92;13.88;;;;;;;24.33;100.00;101293.00;4930785;29;20043;-60
2021/06/03 09:18:51;;;;;;;19.38;13.82;;;;;;;23.95;100.00;101299.06;4937440;29;20071;-59
2021/06/03 09:21:20;;;;;;;19.88;13.07;;;;;;;24.79;100.00;101300.38;4933325;29;20123;-60
2021/06/03 09:23:56;;;;;;;20.95;13.75;;;;;;;24.10;100.00;101298.53;4932603;29;20051;-60
2021/06/03 09:26:25;;;;;;;18.05;13.93;;;;;;;23.65;100.00;101300.84;4938235;29;20049;-60
2021/06/03 09:28:53;;;;;;;17.10;12.43;;;;;;;24.86;100.00;101301.88;4930446;29;20427;-60
2021/06/03 09:31:22;;;;;;;22.30;12.32;;;;;;;24.89;100.00;101295.94;4929313;29;20044;-59
2021/06/03 09:34:01;;;;;;;21.15;13.77;;;;;;;25.28;100.00;101297.91;4935286;29;20047;-59
2021/06/03 09:36:38;;;;;;;19.35;12.13;;;;;;;24.87;100.00;101298.06;4927764;29;20043;-60
2021/06/03 09:39:11;;;;;;;19.05;11.18;;;;;;;25.76;100.00;101301.91;4935448;29;20493;-60
2021/06/03 09:41:41;;;;;;;19.83;13.15;;;;;;;24.05;100.00;101305.53;4927712;29;20047;-60
2021/06/03 09:44:12;;;;;;;17.98;12.73;;;;;;;23.82;100.00;101303.66;4930902;29;20047;-60
2021/06/03 09:46:42;;;;;;;17.70;12.48;;;;;;;23.82;100.00;101300.94;4930603;29;20512;-60
2021/06/03 09:49:18;;;;;;;18.88;13.07;;;;;;;23.18;100.00;101309.06;4929890;29;20048;-59
2021/06/03 09:51:47;;;;;;;19.08;11.43;;;;;;;24.48;100.00;101300.66;4931332;29;20420;-60
2021/06/03 09:54:21;;;;;;;20.25;12.10;;;;;;;25.12;100.00;101304.19;4935818;29;20059;-60
2021/06/03 09:56:51;;;;;;;16.45;11.48;;;;;;;25.25;100.00;101303.88;4930241;29;20048;-60
2021/06/03 09:59:23;;;;;;;19.90;11.23;;;;;;;24.26;100.00;101308.69;4928824;29;20040;-59
2021/06/03 10:01:52;;;;;;;18.42;11.82;;;;;;;23.77;100.00;101305.47;4930383;29;20095;-60
2021/06/03 10:04:24;;;;;;;16.60;11.00;;;;;;;24.33;100.00;101314.81;4931853;29;20131;-59
2021/06/03 10:07:00;;;;;;;15.05;11.20;;;;;;;25.25;100.00;101303.88;4938000;29;20052;-59
2021/06/03 10:09:57;;;;;;;15.98;11.10;;;;;;;26.61;100.00;101308.91;4928111;29;20044;-59
2021/06/03 10:12:32;;;;;;;15.15;9.73;;;;;;;26.55;100.00;101316.25;4930233;29;20047;-60
2021/06/03 10:15:01;;;;;;;13.82;10.60;;;;;;;25.47;100.00;101312.16;4930085;29;20044;-60
2021/06/03 10:17:30;;;;;;;19.23;11.98;;;;;;;25.05;100.00;101320.78;4929747;29;20120;-60
2021/06/03 10:20:00;;;;;;;17.30;11.23;;;;;;;24.76;100.00;101318.09;4932271;29;20078;-59
2021/06/03 10:22:28;;;;;;;18.13;11.65;;;;;;;25.26;100.00;101316.44;4930919;29;20048;-59
2021/06/03 10:25:06;;;;;;;13.50;10.57;;;;;;;25.35;100.00;101315.00;4929069;29;20631;-59
2021/06/03 10:27:35;;;;;;;16.35;12.35;;;;;;;24.70;100.00;101316.34;4934217;29;20070;-59
2021/06/03 10:30:10;;;;;;;19.15;10.75;;;;;;;25.33;100.00;101311.66;4929484;29;20051;-59
2021/06/03 10:32:37;;;;;;;;;;;;;;;25.43;100.00;101317.31;4933784;29;20118;-57
2021/06/03 10:35:08;;;;;;;15.27;10.07;;;;;;;24.64;100.00;101320.91;4925797;29;19922;-59
2021/06/03 10:37:38;;;;;;;15.95;10.60;;;;;;;24.14;100.00;101316.91;4931400;29;20054;-59
2021/06/03 10:40:09;;;;;;;17.77;10.75;;;;;;;24.71;100.00;101318.03;4922958;29;20470;-59
2021/06/03 10:42:37;;;;;;;15.50;10.88;;;;;;;23.34;100.00;101319.22;4930606;29;20047;-59
2021/06/03 10:45:06;;;;;;;18.95;10.55;;;;;;;24.50;100.00;101312.13;4932748;29;20051;-59
2021/06/03 10:47:34;;;;;;;15.35;11.32;;;;;;;25.25;100.00;101323.81;4927679;29;20043;-58
2021/06/03 10:50:04;;;;;;;17.73;10.48;;;;;;;24.46;100.00;101321.06;4931049;29;20047;-59
2021/06/03 10:52:32;;;;;;;15.57;10.30;;;;;;;25.81;100.00;101323.00;4934467;29;20051;-59
2021/06/03 10:55:00;;;;;;;17.13;9.73;;;;;;;26.03;100.00;101309.38;4930017;29;20055;-59
2021/06/03 10:57:50;;;;;;;16.02;10.55;;;;;;;24.95;100.00;101318.72;4935696;29;20215;-59
2021/06/03 11:00:23;;;;;;;17.98;10.27;;;;;;;25.57;100.00;101320.50;4934481;29;20050;-58
2021/06/03 11:02:51;;;;;;;14.45;9.65;;;;;;;28.15;100.00;101326.47;4933533;29;20047;-58
2021/06/03 11:05:25;;;;;;;15.50;10.30;;;;;;;27.59;100.00;101323.44;4928108;29;20103;-58
2021/06/03 11:07:52;;;;;;;12.93;9.23;;;;;;;25.93;100.00;101323.72;4935048;29;20047;-58
2021/06/03 11:10:24;;;;;;;16.50;11.15;;;;;;;25.40;100.00;101315.06;4929974;29;20444;-58
2021/06/03 11:13:12;;;;;;;15.23;11.15;;;;;;;27.71;100.00;101315.78;4936133;29;20051;-58
2021/06/03 11:16:03;;;;;;;13.90;9.32;;;;;;;26.86;100.00;101313.81;4929290;29;20469;-58
2021/06/03 11:19:13;;;;;;;12.88;9.25;;;;;;;26.10;100.00;101312.75;4935182;29;20040;-58
2021/06/03 11:21:55;;;;;;;14.80;9.18;;;;;;;26.12;100.00;101313.31;4933436;29;20351;-58